Time;durP1;ratioP1;P1;durP2;ratioP2;P2;SDS_P1;SDS_P2;PMS_P1;PMS_P2;Temp;Humidity;BMP_temperature;BMP_pressure;BME280_temperature;BME280_humidity;BME280_pressure;Samples;Min_cycle;Max_cycle;Signal;HPM_P1;HPM_P2
2024/01/27 00:01:25;;;;;;;23.83;5.22;;;3.10;99.90;;;;;;5134330;27;20509;-79
2024/01/27 00:03:53;;;;;;;25.48;5.60;;;3.10;99.90;;;;;;5133445;27;20111;-79
2024/01/27 00:06:20;;;;;;;25.80;5.97;;;3.10;99.90;;;;;;5133966;27;20042;-79
2024/01/27 00:08:47;;;;;;;21.67;5.22;;;4.10;99.90;;;;;;5112061;28;20096;-79
2024/01/27 00:11:16;;;;;;;23.55;6.53;;;3.20;99.90;;;;;;5096324;27;20063;-79
2024/01/27 00:13:43;;;;;;;24.95;6.18;;;3.10;99.90;;;;;;5096915;27;20400;-79
2024/01/27 00:16:10;;;;;;;18.92;6.15;;;3.10;99.90;;;;;;5094742;27;20089;-78
2024/01/27 00:18:37;;;;;;;23.42;6.43;;;3.00;99.90;;;;;;5114630;27;20085;-78
2024/01/27 00:21:05;;;;;;;28.33;6.18;;;3.00;99.90;;;;;;5116417;27;20460;-77
2024/01/27 00:23:34;;;;;;;19.95;5.78;;;3.00;99.90;;;;;;5118133;27;20055;-78
2024/01/27 00:26:01;;;;;;;29.30;6.20;;;3.10;99.90;;;;;;5100541;27;20152;-80
2024/01/27 00:28:29;;;;;;;25.65;5.70;;;3.00;99.90;;;;;;5099192;27;20051;-80
2024/01/27 00:30:56;;;;;;;20.23;4.85;;;3.10;99.90;;;;;;5099469;27;20499;-81
2024/01/27 00:33:23;;;;;;;30.27;6.13;;;3.10;99.90;;;;;;5118166;27;20488;-81
2024/01/27 00:35:49;;;;;;;24.73;6.05;;;3.10;99.90;;;;;;5099825;27;20090;-80
2024/01/27 00:38:16;;;;;;;20.08;5.28;;;3.10;99.90;;;;;;5100061;27;20044;-80
2024/01/27 00:40:43;;;;;;;19.83;6.30;;;3.10;99.90;;;;;;5099380;27;20047;-80
2024/01/27 00:43:10;;;;;;;21.63;5.82;;;3.10;99.90;;;;;;5100079;27;20055;-81
2024/01/27 00:45:38;;;;;;;22.98;6.10;;;3.10;99.90;;;;;;5115217;27;20043;-81
2024/01/27 00:48:06;;;;;;;21.50;5.63;;;3.10;99.90;;;;;;5099436;27;20050;-80
2024/01/27 00:50:33;;;;;;;21.55;6.10;;;3.10;99.90;;;;;;5100192;27;20564;-80
2024/01/27 00:53:00;;;;;;;22.85;5.38;;;3.10;99.90;;;;;;5098108;27;20495;-80
2024/01/27 00:55:27;;;;;;;20.88;6.25;;;3.00;99.90;;;;;;5126770;27;20383;-79
2024/01/27 00:57:54;;;;;;;20.10;6.03;;;3.00;99.90;;;;;;5136354;27;20076;-79
2024/01/27 01:00:21;;;;;;;24.10;6.25;;;3.00;99.90;;;;;;5137132;27;20046;-79
2024/01/27 01:02:49;;;;;;;21.25;5.22;;;2.90;99.90;;;;;;5136902;27;20051;-79
2024/01/27 01:05:16;;;;;;;15.80;5.55;;;3.00;99.90;;;;;;5136323;27;20046;-79
2024/01/27 01:07:43;;;;;;;22.08;5.88;;;3.00;99.90;;;;;;5136783;27;20179;-78
2024/01/27 01:10:10;;;;;;;20.25;5.70;;;3.00;99.90;;;;;;5136920;27;20137;-79
2024/01/27 01:12:37;;;;;;;18.58;5.22;;;3.00;99.90;;;;;;5135935;27;20053;-79
2024/01/27 01:15:05;;;;;;;18.33;5.18;;;3.00;99.90;;;;;;5115485;27;20043;-76
2024/01/27 01:17:32;;;;;;;23.90;5.93;;;3.00;99.90;;;;;;5117335;27;20051;-77
2024/01/27 01:20:00;;;;;;;21.33;5.45;;;3.00;99.90;;;;;;5102597;27;20100;-76
2024/01/27 01:22:27;;;;;;;21.30;6.25;;;3.00;99.90;;;;;;5136206;27;20051;-76
2024/01/27 01:24:54;;;;;;;18.83;4.80;;;3.10;99.90;;;;;;5136760;27;20099;-76
2024/01/27 01:27:21;;;;;;;24.25;5.60;;;3.10;99.90;;;;;;5114313;27;20050;-76
2024/01/27 01:29:48;;;;;;;28.40;5.25;;;2.90;99.90;;;;;;5097392;27;20130;-76
2024/01/27 01:32:15;;;;;;;16.25;6.03;;;2.90;99.90;;;;;;5099331;27;20055;-76
2024/01/27 01:34:42;;;;;;;17.77;5.65;;;2.90;99.90;;;;;;5097522;27;20516;-76
2024/01/27 01:37:10;;;;;;;25.25;5.20;;;2.90;99.90;;;;;;5098884;27;20113;-76
2024/01/27 01:39:37;;;;;;;18.20;4.97;;;2.90;99.90;;;;;;5099189;27;20096;-76
2024/01/27 01:42:04;;;;;;;21.45;5.10;;;3.10;99.90;;;;;;5097626;27;20043;-76
2024/01/27 01:44:32;;;;;;;21.75;5.90;;;3.00;99.90;;;;;;5098798;27;20047;-75
2024/01/27 01:46:59;;;;;;;23.25;5.57;;;3.00;99.90;;;;;;5099617;27;20097;-77
2024/01/27 01:49:27;;;;;;;23.40;6.47;;;3.00;99.90;;;;;;5098299;27;20051;-77
2024/01/27 01:51:54;;;;;;;23.80;6.25;;;3.20;99.90;;;;;;5098998;27;20044;-75
2024/01/27 01:54:27;;;;;;;19.33;5.30;;;3.00;99.90;;;;;;5097057;27;20062;-76
2024/01/27 01:56:55;;;;;;;22.25;4.90;;;3.10;99.90;;;;;;5097420;27;20055;-76
2024/01/27 01:59:22;;;;;;;18.85;5.13;;;3.00;99.90;;;;;;5098591;27;20047;-75
2024/01/27 02:01:49;;;;;;;21.05;4.88;;;3.00;99.90;;;;;;5096693;27;20059;-76
2024/01/27 02:04:16;;;;;;;17.67;4.90;;;3.30;99.90;;;;;;5097701;27;20048;-75
2024/01/27 02:06:59;;;;;;;17.33;5.57;;;3.00;99.90;;;;;;5110037;27;20043;-76
2024/01/27 02:09:28;;;;;;;19.23;4.75;;;3.00;99.90;;;;;;5115576;27;20051;-76
2024/01/27 02:11:55;;;;;;;17.50;5.22;;;2.90;99.90;;;;;;5098724;27;20048;-76
2024/01/27 02:14:25;;;;;;;20.15;5.65;;;2.80;99.90;;;;;;5097128;27;20048;-76
2024/01/27 02:16:52;;;;;;;18.15;5.95;;;2.90;99.90;;;;;;5097419;27;20167;-76
2024/01/27 02:19:18;;;;;;;20.35;4.97;;;3.00;99.90;;;;;;5114897;27;20487;-76
2024/01/27 02:21:45;;;;;;;20.27;5.95;;;2.80;99.90;;;;;;5097238;27;20498;-76
2024/01/27 02:24:14;;;;;;;15.18;4.93;;;2.90;99.90;;;;;;5097616;27;20044;-77
2024/01/27 02:26:41;;;;;;;15.25;4.65;;;2.80;99.90;;;;;;5096820;27;20044;-77
2024/01/27 02:29:08;;;;;;;17.55;5.28;;;2.80;99.90;;;;;;5097763;27;20051;-77
2024/01/27 02:31:34;;;;;;;18.88;5.47;;;3.30;99.90;;;;;;5116430;27;20043;-77
2024/01/27 02:34:01;;;;;;;22.88;5.10;;;2.80;99.90;;;;;;5097577;27;20112;-79
2024/01/27 02:36:28;;;;;;;15.95;5.13;;;2.80;99.90;;;;;;5098027;27;20109;-78
2024/01/27 02:38:55;;;;;;;23.10;5.50;;;2.80;99.90;;;;;;5097648;27;20430;-78
2024/01/27 02:41:23;;;;;;;18.58;5.45;;;2.80;99.90;;;;;;5098342;27;20441;-79
2024/01/27 02:43:50;;;;;;;19.85;4.65;;;2.80;99.90;;;;;;5096215;27;20104;-79
2024/01/27 02:46:18;;;;;;;19.80;5.55;;;2.80;99.90;;;;;;5102485;27;20043;-80
2024/01/27 02:48:45;;;;;;;16.33;5.57;;;2.90;99.90;;;;;;5135646;27;20054;-80
2024/01/27 02:51:12;;;;;;;14.70;4.45;;;2.80;99.90;;;;;;5134498;27;20398;-80
2024/01/27 02:53:39;;;;;;;19.13;4.97;;;2.80;99.90;;;;;;5135389;27;20055;-80
2024/01/27 02:56:08;;;;;;;14.85;4.63;;;2.80;99.90;;;;;;5134768;27;20102;-79
2024/01/27 02:58:36;;;;;;;19.92;5.05;;;2.80;99.90;;;;;;5134588;27;20091;-79
2024/01/27 03:01:03;;;;;;;18.02;4.55;;;2.80;99.90;;;;;;5134914;27;20057;-80
2024/01/27 03:03:31;;;;;;;18.20;5.43;;;2.70;99.90;;;;;;5134281;27;21320;-79
2024/01/27 03:05:57;;;;;;;18.90;4.28;;;3.30;99.90;;;;;;5134159;27;20046;-79
2024/01/27 03:08:24;;;;;;;14.48;4.40;;;2.50;99.90;;;;;;5134471;27;20043;-79
2024/01/27 03:10:51;;;;;;;19.45;4.57;;;2.50;99.90;;;;;;5135094;27;20043;-78
2024/01/27 03:13:18;;;;;;;17.42;4.65;;;2.40;99.90;;;;;;5114654;27;20054;-79
2024/01/27 03:15:47;;;;;;;18.33;4.82;;;2.40;99.90;;;;;;5115250;27;20414;-79
2024/01/27 03:18:14;;;;;;;22.30;4.47;;;2.40;99.90;;;;;;5121060;27;20459;-78
2024/01/27 03:20:40;;;;;;;20.83;4.85;;;2.40;99.90;;;;;;5133935;27;20054;-78
2024/01/27 03:23:07;;;;;;;19.00;4.20;;;2.40;99.90;;;;;;5134612;27;20440;-78
2024/01/27 03:25:36;;;;;;;17.90;5.00;;;2.50;99.90;;;;;;5112564;28;20133;-78
2024/01/27 03:28:03;;;;;;;16.80;4.60;;;2.30;99.90;;;;;;5096498;27;20047;-78
2024/01/27 03:30:30;;;;;;;18.92;4.97;;;2.30;99.90;;;;;;5097547;27;20121;-78
2024/01/27 03:32:58;;;;;;;15.23;3.88;;;2.30;99.90;;;;;;5095530;27;20168;-77
2024/01/27 03:35:25;;;;;;;18.05;4.45;;;2.30;99.90;;;;;;5096691;27;20052;-77
2024/01/27 03:37:52;;;;;;;16.45;4.70;;;2.40;99.90;;;;;;5113019;28;20043;-76
2024/01/27 03:40:19;;;;;;;18.00;4.68;;;2.40;99.90;;;;;;5095933;27;20103;-76
2024/01/27 03:42:46;;;;;;;16.17;4.55;;;2.30;99.90;;;;;;5097727;27;20047;-78
2024/01/27 03:45:12;;;;;;;29.10;5.05;;;2.40;99.90;;;;;;5113719;27;20069;-78
2024/01/27 03:47:39;;;;;;;18.75;5.18;;;2.40;99.90;;;;;;5096092;27;20035;-77
2024/01/27 03:50:08;;;;;;;15.13;5.10;;;2.50;99.90;;;;;;5112591;28;20047;-77
2024/01/27 03:52:36;;;;;;;21.73;5.10;;;2.50;99.90;;;;;;5114420;28;20524;-77
2024/01/27 03:55:05;;;;;;;23.33;5.60;;;2.60;99.90;;;;;;5100470;27;20073;-76
2024/01/27 03:57:32;;;;;;;17.35;5.07;;;2.60;99.90;;;;;;5101714;27;20039;-77
2024/01/27 03:59:59;;;;;;;20.40;5.15;;;2.60;99.90;;;;;;5100735;27;20052;-77
2024/01/27 04:02:25;;;;;;;22.60;5.53;;;3.00;99.90;;;;;;5101022;27;20055;-76
2024/01/27 04:04:52;;;;;;;22.83;6.10;;;2.40;99.90;;;;;;5100010;27;20043;-75
2024/01/27 04:07:21;;;;;;;21.77;5.07;;;2.40;99.90;;;;;;5100895;27;20040;-76
2024/01/27 04:09:47;;;;;;;19.45;5.30;;;2.40;99.90;;;;;;5115592;27;20043;-77
2024/01/27 04:12:14;;;;;;;17.38;5.30;;;2.40;99.90;;;;;;5100594;27;20394;-76
2024/01/27 04:14:40;;;;;;;13.88;4.38;;;2.30;99.90;;;;;;5117338;27;20070;-76
2024/01/27 04:17:07;;;;;;;20.75;4.38;;;2.30;99.90;;;;;;5099733;27;20533;-78
2024/01/27 04:19:34;;;;;;;22.73;4.70;;;2.30;99.90;;;;;;5100914;27;20487;-79
2024/01/27 04:22:01;;;;;;;21.00;5.05;;;2.50;99.90;;;;;;5127814;27;20050;-77
2024/01/27 04:24:31;;;;;;;15.38;4.70;;;2.30;99.90;;;;;;5137518;27;20054;-76
2024/01/27 04:26:58;;;;;;;27.95;6.63;;;2.30;99.90;;;;;;5115914;27;20546;-77
2024/01/27 04:29:25;;;;;;;27.67;5.80;;;2.20;99.90;;;;;;5099380;27;20050;-76
2024/01/27 04:31:52;;;;;;;24.40;5.70;;;3.10;99.90;;;;;;5100846;27;20051;-77
2024/01/27 04:34:19;;;;;;;15.45;5.53;;;2.30;99.90;;;;;;5099563;27;20059;-76
2024/01/27 04:36:46;;;;;;;10.93;4.75;;;2.30;99.90;;;;;;5100040;27;20380;-76
2024/01/27 04:39:14;;;;;;;20.75;4.47;;;2.20;99.90;;;;;;5098750;27;20071;-77
2024/01/27 04:41:44;;;;;;;17.73;6.05;;;2.10;99.90;;;;;;5125981;27;20078;-76
2024/01/27 04:44:10;;;;;;;21.80;5.80;;;2.20;99.90;;;;;;5136915;27;20046;-77
2024/01/27 04:46:37;;;;;;;19.65;5.53;;;2.10;99.90;;;;;;5137294;27;20116;-76
2024/01/27 04:49:04;;;;;;;17.92;4.97;;;2.10;99.90;;;;;;5137779;27;20436;-77
2024/01/27 04:51:31;;;;;;;19.23;4.88;;;2.20;99.90;;;;;;5136951;27;20436;-77
2024/01/27 04:53:58;;;;;;;14.15;4.93;;;2.20;99.90;;;;;;5137124;27;20431;-77
2024/01/27 04:56:25;;;;;;;17.35;5.10;;;2.20;99.90;;;;;;5130680;27;20384;-76
2024/01/27 04:58:53;;;;;;;13.93;4.60;;;2.10;99.90;;;;;;5134676;27;20055;-77
2024/01/27 05:01:20;;;;;;;21.75;4.75;;;2.60;99.90;;;;;;5136851;27;20057;-79
2024/01/27 05:03:47;;;;;;;21.02;5.53;;;2.20;99.90;;;;;;5136982;27;20486;-78
2024/01/27 05:06:14;;;;;;;13.73;4.25;;;2.10;99.90;;;;;;5136396;27;20042;-77
2024/01/27 05:08:41;;;;;;;20.67;5.43;;;2.10;99.90;;;;;;5115547;27;20042;-78
2024/01/27 05:11:08;;;;;;;15.38;4.57;;;2.40;99.90;;;;;;5098407;27;20044;-78
2024/01/27 05:13:35;;;;;;;16.90;4.45;;;2.10;99.90;;;;;;5116242;27;20039;-77
2024/01/27 05:16:03;;;;;;;14.40;4.13;;;2.00;99.90;;;;;;5098731;27;20051;-77
2024/01/27 05:18:30;;;;;;;18.77;5.00;;;2.00;99.90;;;;;;5099040;27;20051;-78
2024/01/27 05:20:57;;;;;;;27.85;4.95;;;2.00;99.90;;;;;;5097988;27;20487;-78
2024/01/27 05:23:24;;;;;;;21.92;5.07;;;2.00;99.90;;;;;;5099361;27;20445;-78
2024/01/27 05:25:51;;;;;;;12.05;4.63;;;2.00;99.90;;;;;;5097272;27;20135;-77
2024/01/27 05:28:18;;;;;;;12.20;4.10;;;2.00;99.90;;;;;;5098622;27;20048;-76
2024/01/27 05:30:45;;;;;;;20.50;5.22;;;2.00;99.90;;;;;;5115971;27;20051;-77
2024/01/27 05:33:13;;;;;;;21.10;5.03;;;2.00;99.90;;;;;;5115460;27;20054;-79
2024/01/27 05:35:40;;;;;;;11.88;4.82;;;2.10;99.90;;;;;;5099325;27;20052;-78
2024/01/27 05:38:06;;;;;;;17.38;5.22;;;2.00;99.90;;;;;;5097857;27;20043;-78
2024/01/27 05:40:33;;;;;;;18.98;5.93;;;2.00;99.90;;;;;;5097880;27;20093;-77
2024/01/27 05:43:00;;;;;;;17.55;4.72;;;1.90;99.90;;;;;;5116622;27;20058;-76
2024/01/27 05:45:28;;;;;;;14.48;4.20;;;2.00;99.90;;;;;;5130731;27;20426;-76
2024/01/27 05:47:55;;;;;;;18.40;4.68;;;2.20;99.90;;;;;;5098329;27;20065;-78
2024/01/27 05:50:24;;;;;;;13.07;4.75;;;1.90;99.90;;;;;;5115889;27;20406;-77
2024/01/27 05:52:50;;;;;;;19.58;5.18;;;1.90;99.90;;;;;;5115570;27;20044;-78
2024/01/27 05:55:18;;;;;;;19.88;4.95;;;1.90;99.90;;;;;;5098727;27;20051;-75
2024/01/27 05:57:45;;;;;;;17.42;4.57;;;1.90;99.90;;;;;;5097606;27;20130;-75
2024/01/27 06:00:13;;;;;;;16.95;5.32;;;2.30;99.90;;;;;;5115415;27;20495;-75
2024/01/27 06:02:40;;;;;;;20.23;5.78;;;1.90;99.90;;;;;;5132767;27;20479;-76
2024/01/27 06:05:09;;;;;;;23.23;4.70;;;1.90;99.90;;;;;;5098030;27;20487;-76
2024/01/27 06:07:39;;;;;;;16.45;4.82;;;1.90;99.90;;;;;;5097900;27;20873;-77
2024/01/27 06:10:08;;;;;;;17.27;4.60;;;1.90;99.90;;;;;;5114534;27;20082;-77
2024/01/27 06:12:35;;;;;;;19.00;4.68;;;1.80;99.90;;;;;;5114408;27;20039;-76
2024/01/27 06:15:02;;;;;;;21.60;5.32;;;2.10;99.90;;;;;;5135142;27;20054;-76
2024/01/27 06:17:29;;;;;;;23.17;4.85;;;1.90;99.90;;;;;;5113443;27;20054;-77
2024/01/27 06:19:56;;;;;;;17.15;5.35;;;1.90;99.90;;;;;;5097709;27;20380;-77
2024/01/27 06:22:23;;;;;;;23.85;5.10;;;1.90;99.90;;;;;;5097952;27;20461;-76
2024/01/27 06:24:51;;;;;;;16.80;5.03;;;2.00;99.90;;;;;;5096935;27;20047;-76
2024/01/27 06:27:18;;;;;;;20.80;5.20;;;1.90;99.90;;;;;;5097406;27;20463;-76
2024/01/27 06:29:45;;;;;;;17.48;5.45;;;2.00;99.90;;;;;;5097803;27;20043;-75
2024/01/27 06:32:13;;;;;;;12.10;4.63;;;1.90;99.90;;;;;;5113549;27;20054;-77
2024/01/27 06:34:40;;;;;;;16.77;5.20;;;1.90;99.90;;;;;;5116022;27;20051;-81
2024/01/27 06:37:06;;;;;;;19.80;5.57;;;1.90;99.90;;;;;;5134719;27;20054;-79
2024/01/27 06:39:33;;;;;;;19.63;5.47;;;1.90;99.90;;;;;;5135067;27;20051;-78
2024/01/27 06:42:01;;;;;;;16.65;4.82;;;1.90;99.90;;;;;;5135156;27;20515;-77
2024/01/27 06:44:28;;;;;;;24.48;5.53;;;1.90;99.90;;;;;;5134222;27;20051;-76
2024/01/27 06:46:55;;;;;;;21.00;4.72;;;2.10;99.90;;;;;;5130236;27;20259;-77
2024/01/27 06:49:22;;;;;;;16.70;5.10;;;2.00;99.90;;;;;;5129317;27;20099;-76
2024/01/27 06:51:49;;;;;;;17.63;4.50;;;1.90;99.90;;;;;;5107293;27;20100;-75
2024/01/27 06:54:16;;;;;;;22.27;5.47;;;1.90;99.90;;;;;;5108443;27;20039;-75
2024/01/27 06:56:43;;;;;;;15.65;5.00;;;1.90;99.90;;;;;;5112964;27;20043;-77
2024/01/27 06:59:11;;;;;;;13.55;5.00;;;2.10;99.90;;;;;;5111059;28;20052;-74
2024/01/27 07:01:38;;;;;;;13.00;5.07;;;1.90;99.90;;;;;;5111243;28;20083;-73
2024/01/27 07:04:05;;;;;;;22.35;5.38;;;1.90;99.90;;;;;;5108896;28;20052;-75
2024/01/27 07:06:32;;;;;;;14.90;4.60;;;1.90;99.90;;;;;;5111167;28;20498;-74
2024/01/27 07:08:59;;;;;;;16.75;5.53;;;1.80;99.90;;;;;;5111084;28;20491;-75
2024/01/27 07:11:25;;;;;;;26.08;5.00;;;1.80;99.90;;;;;;5108903;28;20055;-75
2024/01/27 07:13:52;;;;;;;13.20;4.85;;;1.70;99.90;;;;;;5107115;28;20077;-75
2024/01/27 07:16:21;;;;;;;19.67;5.75;;;1.70;99.90;;;;;;5110316;28;20120;-75
2024/01/27 07:18:47;;;;;;;22.42;6.05;;;1.80;99.90;;;;;;5110389;28;20047;-82
2024/01/27 07:21:17;;;;;;;16.77;5.60;;;1.70;99.90;;;;;;5111292;28;20123;-75
2024/01/27 07:23:44;;;;;;;15.13;5.20;;;1.70;99.90;;;;;;5110946;28;20075;-75
2024/01/27 07:26:11;;;;;;;22.58;5.32;;;1.60;99.90;;;;;;5110077;28;20445;-74
2024/01/27 07:28:38;;;;;;;21.17;5.43;;;1.70;99.90;;;;;;5109446;28;20035;-75
2024/01/27 07:31:06;;;;;;;23.92;5.63;;;1.70;99.90;;;;;;5106931;28;20043;-76
2024/01/27 07:33:34;;;;;;;17.70;5.45;;;1.70;99.90;;;;;;5109558;28;20061;-77
2024/01/27 07:36:01;;;;;;;21.35;5.82;;;1.70;99.90;;;;;;5111214;28;20048;-78
2024/01/27 07:38:28;;;;;;;24.38;5.85;;;1.70;99.90;;;;;;5110037;28;20039;-76
2024/01/27 07:40:55;;;;;;;11.18;4.50;;;1.70;99.90;;;;;;5109142;28;20051;-76
2024/01/27 07:43:22;;;;;;;22.23;6.03;;;1.80;99.90;;;;;;5107886;28;20051;-74
2024/01/27 07:45:49;;;;;;;21.98;5.22;;;1.70;99.90;;;;;;5107784;28;20048;-75
2024/01/27 07:48:16;;;;;;;17.50;5.35;;;1.80;99.90;;;;;;5108113;28;20204;-74
2024/01/27 07:50:48;;;;;;;18.67;5.40;;;1.80;99.90;;;;;;5105644;28;20059;-73
2024/01/27 07:53:15;;;;;;;16.05;5.53;;;1.90;99.90;;;;;;5107711;28;20062;-72
2024/01/27 07:55:42;;;;;;;25.35;6.13;;;2.00;99.90;;;;;;5109699;28;20059;-74
2024/01/27 07:58:09;;;;;;;23.00;5.82;;;2.00;99.90;;;;;;5106919;28;20040;-72
2024/01/27 08:00:36;;;;;;;21.30;6.30;;;2.10;99.90;;;;;;5105327;28;20055;-74
2024/01/27 08:03:03;;;;;;;15.73;6.00;;;2.10;99.90;;;;;;5109321;28;20498;-74
2024/01/27 08:05:30;;;;;;;22.05;6.55;;;2.20;99.90;;;;;;5108803;28;20070;-74
2024/01/27 08:07:58;;;;;;;20.73;5.53;;;2.30;99.90;;;;;;5106710;28;20058;-74
2024/01/27 08:10:25;;;;;;;17.52;5.90;;;2.40;99.90;;;;;;5110969;28;20495;-76
2024/01/27 08:12:52;;;;;;;19.42;6.82;;;2.50;99.90;;;;;;5107577;28;20044;-75
2024/01/27 08:15:19;;;;;;;21.38;6.68;;;2.60;99.90;;;;;;5104977;28;20490;-75
2024/01/27 08:17:46;;;;;;;21.30;5.78;;;2.80;99.90;;;;;;5107581;28;20036;-74
2024/01/27 08:20:13;;;;;;;23.45;7.60;;;3.40;99.90;;;;;;5107033;28;20140;-70
2024/01/27 08:22:40;;;;;;;19.45;6.47;;;4.20;99.90;;;;;;5103269;28;20089;-74
2024/01/27 08:25:09;;;;;;;19.15;5.68;;;4.90;99.90;;;;;;5109771;28;20055;-73
2024/01/27 08:27:36;;;;;;;22.17;5.72;;;5.60;99.90;;;;;;5108439;28;20089;-74
2024/01/27 08:30:03;;;;;;;14.10;4.90;;;6.20;99.90;;;;;;5110699;28;20082;-73
2024/01/27 08:32:30;;;;;;;21.98;4.93;;;6.70;99.90;;;;;;5107562;28;20039;-74
2024/01/27 08:34:57;;;;;;;18.48;4.22;;;7.30;99.90;;;;;;5109515;28;20056;-74
2024/01/27 08:37:24;;;;;;;14.75;4.40;;;7.90;99.90;;;;;;5108430;28;20075;-73
2024/01/27 08:39:51;;;;;;;12.77;3.88;;;8.20;99.90;;;;;;5110956;28;20039;-74
2024/01/27 08:42:19;;;;;;;11.00;4.40;;;8.20;99.90;;;;;;5113483;28;20065;-74
2024/01/27 08:44:46;;;;;;;14.40;4.80;;;8.50;99.90;;;;;;5113368;28;20512;-73
2024/01/27 08:47:13;;;;;;;19.48;5.05;;;8.70;99.90;;;;;;5112746;28;20077;-73
2024/01/27 08:49:41;;;;;;;13.60;4.32;;;9.10;99.90;;;;;;5108532;28;20044;-73
2024/01/27 08:52:08;;;;;;;19.75;5.00;;;9.40;99.90;;;;;;5111515;28;20054;-74
2024/01/27 08:54:35;;;;;;;12.15;4.97;;;10.00;99.90;;;;;;5113874;28;20052;-74
2024/01/27 08:57:02;;;;;;;10.30;4.18;;;9.80;99.90;;;;;;5113015;28;20047;-74
2024/01/27 08:59:30;;;;;;;16.73;5.30;;;10.50;99.90;;;;;;5112249;28;20415;-74
2024/01/27 09:01:57;;;;;;;14.52;4.25;;;10.70;99.90;;;;;;5108871;28;20055;-75
2024/01/27 09:04:23;;;;;;;16.85;4.80;;;11.20;99.90;;;;;;5114283;28;20453;-74
2024/01/27 09:06:50;;;;;;;10.95;4.00;;;11.00;99.90;;;;;;5109617;28;20560;-74
2024/01/27 09:09:17;;;;;;;15.73;5.72;;;11.30;99.90;;;;;;5111111;28;20069;-75
2024/01/27 09:11:45;;;;;;;17.17;4.88;;;11.30;99.90;;;;;;5113174;28;20069;-75
2024/01/27 09:14:12;;;;;;;16.95;5.18;;;11.40;99.90;;;;;;5112055;28;20108;-74
2024/01/27 09:16:41;;;;;;;13.45;4.40;;;11.90;99.90;;;;;;5111149;28;20124;-75
2024/01/27 09:19:09;;;;;;;11.45;4.20;;;12.00;99.90;;;;;;5110343;28;20044;-75
2024/01/27 09:21:36;;;;;;;13.30;5.50;;;12.30;99.90;;;;;;5112838;28;20130;-75
2024/01/27 09:24:03;;;;;;;12.20;5.35;;;12.60;99.90;;;;;;5111979;28;20055;-76
2024/01/27 09:26:30;;;;;;;18.77;5.60;;;12.70;99.90;;;;;;5107373;28;20058;-76
2024/01/27 09:28:58;;;;;;;16.60;5.03;;;12.70;99.90;;;;;;5110113;28;20697;-75
2024/01/27 09:31:25;;;;;;;12.57;5.38;;;13.00;99.90;;;;;;5112025;28;20471;-76
2024/01/27 09:33:55;;;;;;;17.73;5.90;;;12.60;99.90;;;;;;5113138;28;20051;-74
2024/01/27 09:36:22;;;;;;;12.13;4.75;;;12.80;99.90;;;;;;5111906;28;20469;-74
2024/01/27 09:38:49;;;;;;;15.77;5.50;;;13.40;99.90;;;;;;5113087;28;20085;-75
2024/01/27 09:41:16;;;;;;;14.27;5.30;;;13.60;99.90;;;;;;5111887;28;20056;-75
2024/01/27 09:43:45;;;;;;;11.43;4.38;;;14.10;99.90;;;;;;5113713;28;20483;-75
2024/01/27 09:46:12;;;;;;;11.50;4.53;;;14.40;99.90;;;;;;5113151;28;20074;-75
2024/01/27 09:48:39;;;;;;;11.43;4.60;;;14.80;99.90;;;;;;5112979;28;20100;-74
2024/01/27 09:51:09;;;;;;;14.68;4.85;;;15.00;99.90;;;;;;5110630;28;20051;-76
2024/01/27 09:53:36;;;;;;;14.38;4.85;;;15.30;99.90;;;;;;5109608;28;20044;-76
2024/01/27 09:56:04;;;;;;;17.55;5.40;;;15.50;99.90;;;;;;5111866;28;20051;-76
2024/01/27 09:58:31;;;;;;;19.98;5.68;;;15.20;99.90;;;;;;5111255;28;20127;-75
2024/01/27 10:01:00;;;;;;;14.75;4.95;;;15.30;99.90;;;;;;5109334;28;20044;-75
2024/01/27 10:03:30;;;;;;;17.40;5.82;;;15.00;99.90;;;;;;5113398;28;20051;-74
2024/01/27 10:05:58;;;;;;;13.48;4.80;;;15.00;99.90;;;;;;5113338;28;20058;-75
2024/01/27 10:08:26;;;;;;;14.57;4.65;;;15.10;99.90;;;;;;5110464;28;20044;-75
2024/01/27 10:10:56;;;;;;;17.15;5.55;;;14.50;99.90;;;;;;5112605;28;20047;-74
2024/01/27 10:13:26;;;;;;;14.60;5.20;;;15.30;99.90;;;;;;5113014;28;20427;-75
2024/01/27 10:16:01;;;;;;;9.77;4.50;;;15.50;99.90;;;;;;5112530;28;20379;-75
2024/01/27 10:18:28;;;;;;;11.10;5.32;;;15.90;99.90;;;;;;5113018;28;20040;-75
2024/01/27 10:20:55;;;;;;;15.05;6.03;;;14.80;99.90;;;;;;5109997;28;20082;-75
2024/01/27 10:23:22;;;;;;;12.23;5.07;;;14.50;99.90;;;;;;5112804;28;20040;-75
2024/01/27 10:25:50;;;;;;;13.35;5.50;;;14.20;99.90;;;;;;5110602;28;20051;-75
2024/01/27 10:28:17;;;;;;;13.77;4.55;;;15.00;99.90;;;;;;5111850;28;20384;-76
2024/01/27 10:30:44;;;;;;;15.32;5.45;;;15.20;99.90;;;;;;5112548;28;20130;-76
2024/01/27 10:33:13;;;;;;;11.93;4.75;;;15.40;99.90;;;;;;5112826;28;20054;-76
2024/01/27 10:35:40;;;;;;;12.95;4.80;;;15.40;99.90;;;;;;5112097;28;20551;-75
2024/01/27 10:38:07;;;;;;;11.75;4.60;;;14.70;99.90;;;;;;5112595;28;20043;-75
2024/01/27 10:40:34;;;;;;;13.02;4.32;;;14.80;99.90;;;;;;5112461;28;20101;-75
2024/01/27 10:43:06;;;;;;;12.05;4.85;;;15.10;99.90;;;;;;5111728;28;20063;-75
2024/01/27 10:45:37;;;;;;;10.85;4.22;;;15.60;99.90;;;;;;5111238;28;20047;-75
2024/01/27 10:48:05;;;;;;;9.95;4.10;;;15.90;99.90;;;;;;5110038;28;20054;-75
2024/01/27 10:50:35;;;;;;;13.00;4.88;;;15.70;99.90;;;;;;5110904;28;20044;-75
2024/01/27 10:53:04;;;;;;;11.60;4.97;;;15.80;99.90;;;;;;5111488;28;20059;-75
2024/01/27 10:55:31;;;;;;;14.48;4.80;;;16.20;99.90;;;;;;5112373;28;20053;-76
2024/01/27 10:58:01;;;;;;;20.65;5.30;;;15.90;99.90;;;;;;5111456;28;20052;-76
2024/01/27 11:00:31;;;;;;;12.57;5.22;;;16.10;99.90;;;;;;5111876;28;20062;-76
2024/01/27 11:02:59;;;;;;;13.48;4.38;;;16.30;99.90;;;;;;5109745;28;20040;-78
2024/01/27 11:05:29;;;;;;;12.55;5.18;;;17.30;99.90;;;;;;5110582;28;20048;-76
2024/01/27 11:07:56;;;;;;;11.98;4.88;;;16.70;99.90;;;;;;5111449;28;21397;-76
2024/01/27 11:10:23;;;;;;;14.07;4.60;;;16.60;99.90;;;;;;5099509;28;20094;-76
2024/01/27 11:12:52;;;;;;;11.52;4.03;;;16.30;99.90;;;;;;5107961;28;20104;-77
2024/01/27 11:15:19;;;;;;;14.95;4.80;;;16.70;99.90;;;;;;5110530;28;20054;-72
2024/01/27 11:17:48;;;;;;;14.10;4.57;;;17.20;99.90;;;;;;5107929;28;20380;-76
2024/01/27 11:20:16;;;;;;;11.80;4.35;;;17.10;99.90;;;;;;5108672;28;20055;-76
2024/01/27 11:22:43;;;;;;;10.55;4.63;;;17.30;99.70;;;;;;5111045;28;20074;-76
2024/01/27 11:25:17;;;;;;;17.33;5.10;;;17.90;99.90;;;;;;5108057;28;20414;-76
2024/01/27 11:27:45;;;;;;;17.17;5.10;;;17.40;98.50;;;;;;5110933;28;20044;-76
2024/01/27 11:30:28;;;;;;;15.57;5.68;;;17.40;99.90;;;;;;5110507;28;20039;-75
2024/01/27 11:32:57;;;;;;;10.23;4.13;;;17.70;98.80;;;;;;5110545;28;20048;-76
2024/01/27 11:35:24;;;;;;;14.18;4.40;;;17.20;99.20;;;;;;5110302;28;20154;-76
2024/01/27 11:37:51;;;;;;;12.50;4.63;;;17.30;98.70;;;;;;5109480;28;20105;-75
2024/01/27 11:40:18;;;;;;;15.70;4.85;;;16.90;99.90;;;;;;5109933;28;20074;-76
2024/01/27 11:42:55;;;;;;;11.93;4.22;;;17.40;98.40;;;;;;5111785;28;20059;-77
2024/01/27 11:45:21;;;;;;;10.63;4.28;;;17.50;99.90;;;;;;5108615;28;20566;-77
2024/01/27 11:47:48;;;;;;;11.23;4.22;;;17.50;99.90;;;;;;5111020;28;20092;-76
2024/01/27 11:50:18;;;;;;;17.38;4.57;;;19.00;98.80;;;;;;5110225;28;20075;-77
2024/01/27 11:52:45;;;;;;;16.00;4.73;;;18.00;98.70;;;;;;5107939;28;20051;-76
2024/01/27 11:55:12;;;;;;;11.50;3.75;;;18.50;98.20;;;;;;5108832;28;20406;-76
2024/01/27 11:57:39;;;;;;;15.93;4.50;;;18.50;96.70;;;;;;5109621;28;20453;-77
2024/01/27 12:00:09;;;;;;;9.90;4.13;;;18.80;97.20;;;;;;5108246;28;20039;-76
2024/01/27 12:02:36;;;;;;;15.52;4.20;;;18.20;97.50;;;;;;5108446;28;20078;-76
2024/01/27 12:05:03;;;;;;;15.07;4.43;;;17.70;97.70;;;;;;5108575;28;20052;-77
2024/01/27 12:07:31;;;;;;;14.02;4.40;;;18.20;97.60;;;;;;5109050;28;20051;-76
2024/01/27 12:09:58;;;;;;;12.80;4.05;;;17.30;98.50;;;;;;5109718;28;20100;-76
2024/01/27 12:12:25;;;;;;;11.63;4.13;;;17.20;98.60;;;;;;5110713;28;20134;-76
2024/01/27 12:14:53;;;;;;;13.55;3.97;;;17.80;98.50;;;;;;5111670;28;20044;-76
2024/01/27 12:17:20;;;;;;;12.82;4.00;;;17.90;97.30;;;;;;5111733;28;20047;-76
2024/01/27 12:19:48;;;;;;;12.00;4.15;;;18.30;97.60;;;;;;5115580;28;20044;-75
2024/01/27 12:22:23;;;;;;;12.23;4.00;;;18.30;97.20;;;;;;5115777;28;20494;-77
2024/01/27 12:24:51;;;;;;;12.98;4.70;;;19.10;96.20;;;;;;5114599;28;20071;-77
2024/01/27 12:27:18;;;;;;;16.05;4.80;;;19.10;96.20;;;;;;5113729;28;20055;-75
2024/01/27 12:29:47;;;;;;;15.90;4.57;;;19.80;96.70;;;;;;5114251;28;20101;-77
2024/01/27 12:32:14;;;;;;;10.07;3.55;;;19.00;95.60;;;;;;5112992;28;20048;-77
2024/01/27 12:34:41;;;;;;;12.63;3.85;;;18.70;96.20;;;;;;5114684;28;20047;-77
2024/01/27 12:37:09;;;;;;;11.27;3.65;;;18.30;95.70;;;;;;5111894;28;20047;-77
2024/01/27 12:39:36;;;;;;;12.73;3.40;;;18.20;95.90;;;;;;5115170;28;20060;-76
2024/01/27 12:42:05;;;;;;;11.73;4.32;;;17.20;96.10;;;;;;5113848;28;20044;-77
2024/01/27 12:44:32;;;;;;;11.38;3.97;;;17.40;96.30;;;;;;5112718;28;20051;-77